createdAt,value
2019-05-19T10:33:16.867Z,6.08
2019-05-19T10:35:47.932Z,6.55
2019-05-19T10:38:19.171Z,5.90
2019-05-19T10:40:50.123Z,6.45
2019-05-19T10:43:21.807Z,6.10
2019-05-19T10:46:02.073Z,5.90
2019-05-19T10:48:33.076Z,6.25
2019-05-19T10:51:04.119Z,6.20
2019-05-19T10:53:35.222Z,6.30
2019-05-19T10:56:06.178Z,5.92
2019-05-19T10:58:37.083Z,5.92
2019-05-19T11:01:08.106Z,6.15
2019-05-19T11:03:39.243Z,6.30
2019-05-19T11:06:10.831Z,6.53
2019-05-19T11:08:41.679Z,5.83
2019-05-19T11:11:12.519Z,5.42
2019-05-19T11:13:44.320Z,5.80
2019-05-19T11:16:15.508Z,5.45
2019-05-19T11:18:46.695Z,6.00
2019-05-19T11:21:17.432Z,6.17
2019-05-19T11:23:48.421Z,5.80
2019-05-19T11:26:19.753Z,6.25
2019-05-19T11:28:51.156Z,6.53
2019-05-19T11:31:22.409Z,6.40
2019-05-19T11:33:53.418Z,6.58
2019-05-19T11:36:24.968Z,7.17
2019-05-19T11:38:55.754Z,6.87
2019-05-19T11:41:27.298Z,6.78
2019-05-19T11:43:58.564Z,6.90
2019-05-19T11:46:29.571Z,6.37
2019-05-19T11:49:00.521Z,7.25
2019-05-19T11:51:31.538Z,7.95
2019-05-19T11:54:02.664Z,7.70
2019-05-19T11:56:33.503Z,7.80
2019-05-19T11:59:04.567Z,7.85
2019-05-19T12:01:36.138Z,7.50
2019-05-19T12:04:07.098Z,7.75
2019-05-19T12:06:40.032Z,8.55
2019-05-19T12:17:44.322Z,8.30
2019-05-19T12:20:16.983Z,7.03
2019-05-19T12:22:49.469Z,7.22
2019-05-19T12:25:22.122Z,7.30
2019-05-19T12:27:54.508Z,7.53
2019-05-19T12:30:26.902Z,6.90
2019-05-19T12:32:59.524Z,7.45
2019-05-19T12:35:32.058Z,7.87
2019-05-19T12:38:05.487Z,7.30
2019-05-19T12:40:38.220Z,7.47
2019-05-19T12:43:10.790Z,7.53
2019-05-19T12:45:43.247Z,6.95
2019-05-19T12:48:16.164Z,7.33
2019-05-19T12:50:48.640Z,8.03
2019-05-19T12:53:20.986Z,7.65
2019-05-19T12:55:53.632Z,7.30
2019-05-19T12:58:25.918Z,7.95
2019-05-19T13:00:58.109Z,7.62
2019-05-19T13:03:30.255Z,8.43
2019-05-19T13:06:02.420Z,8.50
2019-05-19T13:08:35.761Z,8.58
2019-05-19T13:11:08.411Z,9.45
2019-05-19T13:13:40.619Z,6.67
2019-05-19T13:16:13.336Z,6.90
2019-05-19T13:18:45.655Z,7.03
2019-05-19T13:21:17.775Z,6.55
2019-05-19T13:23:50.122Z,5.62
2019-05-19T13:26:22.462Z,5.30
2019-05-19T13:28:54.718Z,4.90
2019-05-19T13:31:33.820Z,4.97
2019-05-19T13:34:06.087Z,5.00
2019-05-19T13:36:40.387Z,5.25
2019-05-19T13:39:12.980Z,6.05
2019-05-19T13:41:45.180Z,5.75
2019-05-19T13:44:17.337Z,5.47
2019-05-19T13:46:50.234Z,5.78
2019-05-19T13:49:22.443Z,6.65
2019-05-19T13:51:55.337Z,7.50
2019-05-19T13:54:27.814Z,7.03
2019-05-19T13:57:11.919Z,6.55
2019-05-19T13:59:34.069Z,6.58
2019-05-19T14:02:06.778Z,6.80
2019-05-19T14:04:39.398Z,6.47
2019-05-19T14:07:11.700Z,6.15
2019-05-19T14:09:43.906Z,5.78
2019-05-19T14:12:16.041Z,6.30
2019-05-19T14:14:48.175Z,5.90
2019-05-19T14:17:20.308Z,5.42
2019-05-19T14:19:52.512Z,5.50
2019-05-19T14:22:24.850Z,5.28
2019-05-19T14:24:57.322Z,5.30
2019-05-19T14:27:31.118Z,5.30
2019-05-19T14:30:03.434Z,4.97
2019-05-19T14:32:35.704Z,5.72
2019-05-19T14:35:08.481Z,5.20
2019-05-19T14:37:40.773Z,6.08
2019-05-19T14:40:15.351Z,6.03
2019-05-19T14:42:54.991Z,5.47
2019-05-19T14:45:27.289Z,6.35
2019-05-19T14:47:59.788Z,5.92
2019-05-19T14:50:31.928Z,6.00
2019-05-19T14:53:04.120Z,6.08
2019-05-19T14:55:36.410Z,5.83
2019-05-19T14:58:08.807Z,7.00
2019-05-19T15:00:40.920Z,6.60
2019-05-19T15:03:13.601Z,6.30
2019-05-19T15:05:45.831Z,6.40
2019-05-19T15:08:17.979Z,6.28
2019-05-19T15:10:50.404Z,7.08
2019-05-19T15:13:22.766Z,7.50
2019-05-19T15:15:57.956Z,7.45
2019-05-19T15:18:29.131Z,7.12
2019-05-19T15:21:01.589Z,7.65
2019-05-19T15:23:33.804Z,7.72
2019-05-19T15:26:06.052Z,8.00
2019-05-19T15:28:38.233Z,8.35
2019-05-19T15:31:10.342Z,7.97
2019-05-19T15:33:42.528Z,7.83
2019-05-19T15:36:15.082Z,7.80
2019-05-19T15:38:47.249Z,7.37
2019-05-19T15:41:19.448Z,7.40
2019-05-19T15:43:51.747Z,8.00
2019-05-19T15:46:24.220Z,8.03
2019-05-19T15:48:56.417Z,7.83
2019-05-19T15:51:33.536Z,8.20
2019-05-19T15:54:02.364Z,7.70
2019-05-19T15:56:34.997Z,7.78
2019-05-19T15:59:07.285Z,7.90
2019-05-19T16:01:39.988Z,7.35
2019-05-19T16:04:12.168Z,7.85
2019-05-19T16:06:44.625Z,8.70
2019-05-19T16:09:16.865Z,8.03
2019-05-19T16:11:49.087Z,7.47
2019-05-19T16:14:21.705Z,9.10
2019-05-19T16:16:54.193Z,8.30
2019-05-19T16:19:26.346Z,8.78
2019-05-19T16:21:58.972Z,9.10
2019-05-19T16:24:31.477Z,8.95
2019-05-19T16:27:03.688Z,10.03
2019-05-19T16:29:35.983Z,19.30
2019-05-19T16:32:08.180Z,10.13
2019-05-19T16:34:41.427Z,10.60
2019-05-19T16:37:24.658Z,10.23
2019-05-19T16:39:57.311Z,10.18
2019-05-19T16:42:30.395Z,10.50
2019-05-19T16:45:02.553Z,10.58
2019-05-19T16:47:34.662Z,10.63
2019-05-19T16:50:07.159Z,10.88
2019-05-19T16:52:41.023Z,10.50
2019-05-19T16:55:32.423Z,10.20
2019-05-19T16:58:20.206Z,10.72
2019-05-19T17:00:38.655Z,10.38
2019-05-19T17:03:11.219Z,11.25
2019-05-19T17:05:43.424Z,10.78
2019-05-19T17:08:15.726Z,11.70
2019-05-19T17:10:47.886Z,10.65
2019-05-19T17:13:20.303Z,11.70
2019-05-19T17:15:52.499Z,11.18
2019-05-19T17:18:24.946Z,12.03
2019-05-19T17:20:57.131Z,11.57
2019-05-19T17:23:29.448Z,11.60
2019-05-19T17:26:01.653Z,11.70
2019-05-19T17:28:34.232Z,11.65
2019-05-19T17:31:07.740Z,11.40
2019-05-19T17:33:40.281Z,11.48
2019-05-19T17:36:12.673Z,11.57
2019-05-19T17:38:45.260Z,11.70
2019-05-19T17:41:21.222Z,11.10
2019-05-19T17:44:02.450Z,12.05
2019-05-19T17:46:34.970Z,11.70
2019-05-19T17:49:07.208Z,11.63
2019-05-19T17:51:39.540Z,12.07
2019-05-19T17:54:11.738Z,11.33
2019-05-19T17:56:44.732Z,10.85
2019-05-19T17:59:21.564Z,10.68
2019-05-19T18:01:54.009Z,10.45
2019-05-19T18:04:26.460Z,10.68
2019-05-19T18:06:59.071Z,10.35
2019-05-19T18:09:31.580Z,10.25
2019-05-19T18:12:04.241Z,9.98
2019-05-19T18:14:36.648Z,9.40
2019-05-19T18:17:09.030Z,9.23
2019-05-19T18:19:43.568Z,9.35
2019-05-19T18:22:16.126Z,8.18
2019-05-19T18:25:09.040Z,8.18
2019-05-19T18:27:43.393Z,8.65
2019-05-19T18:30:17.436Z,7.83
2019-05-19T18:32:54.282Z,8.23
2019-05-19T18:35:27.480Z,8.58
2019-05-19T18:38:00.657Z,8.40
2019-05-19T18:40:35.593Z,8.08
2019-05-19T18:43:15.232Z,8.60
2019-05-19T18:45:56.737Z,8.43
2019-05-19T18:48:31.247Z,8.40
2019-05-19T18:51:08.888Z,8.65
2019-05-19T18:53:45.929Z,8.85
2019-05-19T18:56:22.300Z,8.88
2019-05-19T18:59:08.608Z,9.38
2019-05-19T19:01:45.676Z,9.30
2019-05-19T19:04:18.194Z,9.08
2019-05-19T19:06:55.010Z,9.03
2019-05-19T19:09:27.700Z,9.50
2019-05-19T19:12:00.836Z,9.55
2019-05-19T19:14:33.720Z,9.05
2019-05-19T19:17:07.009Z,9.00
2019-05-19T19:19:42.953Z,9.03
2019-05-19T19:22:16.176Z,9.38
2019-05-19T19:24:53.831Z,9.20
2019-05-19T19:27:26.461Z,9.05
2019-05-19T19:30:03.331Z,8.78
2019-05-19T19:32:34.101Z,9.13
2019-05-19T19:35:06.836Z,9.40
2019-05-19T19:37:39.627Z,9.05
2019-05-19T19:40:13.436Z,9.13
2019-05-19T19:42:47.192Z,9.28
2019-05-19T19:45:19.977Z,10.15
2019-05-19T19:47:52.852Z,9.90
2019-05-19T19:50:25.320Z,9.63
2019-05-19T19:53:01.802Z,9.65
2019-05-19T19:55:39.638Z,9.03
2019-05-19T19:58:12.380Z,10.13
2019-05-19T20:00:47.579Z,9.80
2019-05-19T20:03:20.513Z,10.15
2019-05-19T20:05:55.714Z,10.30
2019-05-19T20:08:31.684Z,10.10
2019-05-19T20:11:05.338Z,10.43
2019-05-19T20:13:37.660Z,10.50
2019-05-19T20:16:10.151Z,10.45
2019-05-19T20:18:42.597Z,10.28
2019-05-19T20:21:16.525Z,10.40
2019-05-19T20:23:51.778Z,10.80
2019-05-19T20:26:27.260Z,10.98
2019-05-19T20:29:00.844Z,10.75
2019-05-19T20:31:34.098Z,10.68
2019-05-19T20:34:13.350Z,11.38
2019-05-19T20:36:45.595Z,10.30
2019-05-19T20:39:18.677Z,10.38
2019-05-19T20:41:54.632Z,11.43
2019-05-19T20:44:29.966Z,11.30
2019-05-19T20:47:04.559Z,11.53
2019-05-19T20:49:38.850Z,11.55
2019-05-19T20:52:12.845Z,11.40
2019-05-19T20:54:45.091Z,11.83
2019-05-19T20:57:17.565Z,12.25
2019-05-19T20:59:50.311Z,11.53
2019-05-19T21:02:22.711Z,11.53
2019-05-19T21:04:57.784Z,12.23
2019-05-19T21:07:30.326Z,11.65
2019-05-19T21:10:04.085Z,11.85
2019-05-19T21:12:36.896Z,12.03
2019-05-19T21:15:10.523Z,13.05
2019-05-19T21:17:43.455Z,13.35
2019-05-19T21:20:16.171Z,11.97
2019-05-19T21:22:48.964Z,12.98
2019-05-19T21:25:22.267Z,13.40
2019-05-19T21:27:54.840Z,13.03
2019-05-19T21:30:27.588Z,12.07
2019-05-19T21:33:00.081Z,12.55
2019-05-19T21:35:33.262Z,13.00
2019-05-19T21:38:06.035Z,12.70
2019-05-19T21:40:38.781Z,13.18
2019-05-19T21:43:11.622Z,13.43
2019-05-19T21:45:44.105Z,12.93
2019-05-19T21:48:18.193Z,12.82
2019-05-19T21:50:50.483Z,12.88
2019-05-19T21:53:23.191Z,12.63
2019-05-19T21:55:55.427Z,13.20
2019-05-19T21:58:28.090Z,13.98
2019-05-19T22:01:00.434Z,13.65
2019-05-19T22:03:33.057Z,13.95
2019-05-19T22:06:05.729Z,13.68
2019-05-19T22:08:39.653Z,14.50
2019-05-19T22:11:12.199Z,14.87
2019-05-19T22:13:45.595Z,14.43
2019-05-19T22:16:18.794Z,15.50
2019-05-19T22:18:51.055Z,15.68
2019-05-19T22:21:23.503Z,15.10
2019-05-19T22:23:55.681Z,15.20
2019-05-19T22:26:28.410Z,16.07
2019-05-19T22:29:01.115Z,14.90
2019-05-19T22:31:37.041Z,14.98
2019-05-19T22:34:07.936Z,14.78
2019-05-19T22:36:40.239Z,14.95
2019-05-19T22:39:12.631Z,14.83
2019-05-19T22:41:45.112Z,14.20
2019-05-19T22:44:20.333Z,15.88
2019-05-19T22:46:59.383Z,14.65
2019-05-19T22:49:34.366Z,15.55
2019-05-19T22:52:07.508Z,15.18
2019-05-19T22:54:40.906Z,16.02
2019-05-19T22:57:13.153Z,15.70
2019-05-19T22:59:46.400Z,14.98
2019-05-19T23:02:18.869Z,14.60
2019-05-19T23:04:51.658Z,15.25
2019-05-19T23:07:24.018Z,15.80
2019-05-19T23:09:56.351Z,15.35
2019-05-19T23:12:28.939Z,16.12
2019-05-19T23:15:01.443Z,15.60
2019-05-19T23:17:33.769Z,14.80
2019-05-19T23:20:06.651Z,14.40
2019-05-19T23:22:38.971Z,15.15
2019-05-19T23:25:18.304Z,14.03
2019-05-19T23:27:50.753Z,15.10
2019-05-19T23:30:24.127Z,15.25
2019-05-19T23:32:56.431Z,15.35
2019-05-19T23:35:28.742Z,14.78
2019-05-19T23:38:01.123Z,14.45
2019-05-19T23:40:33.475Z,14.95
2019-05-19T23:43:05.744Z,14.80
2019-05-19T23:45:38.111Z,14.93
2019-05-19T23:48:10.628Z,14.85
2019-05-19T23:50:42.916Z,16.15
2019-05-19T23:53:15.486Z,14.90
2019-05-19T23:55:48.055Z,15.93
2019-05-19T23:58:20.466Z,15.30
